ADDS METAR Data INFO
IDs: Format: Raw Decoded Include TAF

Data at: 2216 UTC 24 Jun 2018

KSJX 242215Z AUTO 08004KT 10SM CLR 21/12 A3006 RMK AO2 T02100120
KSJX 242156Z AUTO 03003KT 10SM CLR 21/12 A3007 RMK AO2 T02120121
KSJX 242155Z AUTO 05004KT 10SM CLR 21/12 A3007 RMK AO2 T02120121
KSJX 242135Z AUTO 09005KT 10SM CLR 21/12 A3007 RMK AO2 T02100121
KSJX 242115Z AUTO 10005KT 10SM CLR 21/12 A3006 RMK AO2 T02080120
KSJX 242055Z AUTO 09004KT 10SM SCT110 20/12 A3006 RMK AO2 T02000122
KSJX 242036Z AUTO 05003KT 10SM OVC110 20/12 A3007 RMK AO2 T01990123
KSJX 242035Z AUTO 00000KT 10SM OVC110 20/12 A3007 RMK AO2 T01980122
KSJX 242015Z AUTO 01006KT 10SM OVC110 20/12 A3006 RMK AO2 T01980122
KSJX 241955Z AUTO 01003KT 10SM BKN120 20/12 A3005 RMK AO2 T02040124
KSJX 241936Z AUTO 03007KT 10SM BKN120 19/12 A3005 RMK AO2 T01940120
KSJX 241935Z AUTO 03006KT 10SM BKN120 19/12 A3005 RMK AO2 T01930120
KSJX 241915Z AUTO 01007KT 10SM OVC110 19/12 A3005 RMK AO2 T01910118
KSJX 241855Z AUTO 02007KT 10SM BKN110 19/12 A3003 RMK AO2 T01940119
KSJX 241836Z AUTO 03007KT 10SM SCT100 BKN110 20/12 A3003 RMK AO2 T01960121
KSJX 241835Z AUTO 04006KT 10SM SCT100 BKN110 20/12 A3003 RMK AO2 T01960121
KSJX 241815Z AUTO 02007KT 10SM OVC110 19/12 A3003 RMK AO2 T01900119
KSJX 241756Z AUTO 01007KT 10SM OVC100 19/12 A3003 RMK AO2 T01870119 10192 20155
KSJX 241755Z AUTO 36007KT 10SM OVC100 19/12 A3003 RMK AO2 T01870118 10192 20155
KSJX 241736Z AUTO 06006KT 10SM OVC100 18/12 A3002 RMK AO2 T01810116
KSJX 241735Z AUTO 06006KT 10SM OVC100 18/12 A3002 RMK AO2 T01810116
KSJX 241715Z AUTO 04005KT 10SM OVC100 18/12 A3001 RMK AO2 T01810116
KSJX 241656Z AUTO 04005KT 10SM BKN100 19/12 A3001 RMK AO2 T01850116
KSJX 241655Z AUTO 04007KT 10SM BKN100 19/12 A3001 RMK AO2 T01850117
KSJX 241636Z AUTO 06006KT 10SM SCT110 19/12 A3000 RMK AO2 T01900119
KSJX 241635Z AUTO 05006KT 10SM SCT110 19/12 A3000 RMK AO2 T01900120
KSJX 241615Z AUTO 00000KT 10SM SCT120 19/12 A2999 RMK AO2 T01860122
KSJX 241556Z AUTO 06005KT 10SM SCT120 18/12 A2998 RMK AO2 T01760116
KSJX 241555Z AUTO 06006KT 10SM SCT120 18/12 A2998 RMK AO2 T01760116
KSJX 241536Z AUTO 05006KT 10SM CLR 18/12 A2997 RMK AO2 T01800121
KSJX 241535Z AUTO 05006KT 10SM CLR 18/12 A2997 RMK AO2 T01800120
KSJX 241515Z AUTO 04009KT 10SM CLR 18/12 A2996 RMK AO2 T01830118
KSJX 241456Z AUTO 04009G15KT 10SM CLR 19/12 A2995 RMK AO2 T01850124
KSJX 241455Z AUTO 04009G15KT 10SM CLR 19/12 A2995 RMK AO2 T01850124
KSJX 241436Z AUTO 03011G15KT 10SM CLR 19/13 A2995 RMK AO2 T01900128
KSJX 241435Z AUTO 03009G14KT 10SM CLR 19/13 A2995 RMK AO2 T01900128
KSJX 241415Z AUTO 04008KT 10SM CLR 19/13 A2994 RMK AO2 T01850127
KSJX 241356Z AUTO 05007KT 10SM CLR 18/13 A2994 RMK AO2 T01800126
KSJX 241355Z AUTO 06006KT 10SM CLR 18/12 A2994 RMK AO2 T01790124
KSJX 241335Z AUTO 03006KT 10SM CLR 18/12 A2993 RMK AO2 T01750122
KSJX 241315Z AUTO 04005KT 10SM CLR 18/13 A2992 RMK AO2 T01750126
KSJX 241256Z AUTO 04005KT 10SM CLR 17/13 A2992 RMK AO2 T01680126
KSJX 241255Z AUTO 04005KT 10SM SCT075 17/13 A2992 RMK AO2 T01680126
KSJX 241235Z AUTO 01003KT 10SM BKN075 16/13 A2992 RMK AO2 T01600125
KSJX 241215Z AUTO 00000KT 10SM OVC075 16/13 A2990 RMK AO2 T01560125
KSJX 241156Z AUTO 00000KT 10SM SCT075 16/12 A2990 RMK AO2 T01550122 10163 20146
KSJX 241155Z AUTO 00000KT 10SM SCT075 16/12 A2990 RMK AO2 T01550122 10163 20146
KSJX 241135Z AUTO 00000KT 10SM SCT070 15/12 A2990 RMK AO2 T01510121
KSJX 241116Z AUTO 00000KT 10SM SCT070 SCT080 15/12 A2989 RMK AO2 T01470122
KSJX 241115Z AUTO 00000KT 10SM SCT080 15/12 A2989 RMK AO2 T01470123
KSJX 241056Z AUTO 00000KT 10SM SCT070 BKN080 15/12 A2989 RMK AO2 T01510117
KSJX 241055Z AUTO 00000KT 10SM SCT070 BKN080 15/12 A2989 RMK AO2 T01510116
KSJX 241035Z AUTO 00000KT 10SM OVC070 16/12 A2989 RMK AO2 T01550117
KSJX 241016Z AUTO 00000KT 10SM OVC070 16/11 A2988 RMK AO2 T01550112
KSJX 241015Z AUTO 00000KT 10SM OVC070 16/11 A2988 RMK AO2 T01550112
KSJX 240956Z AUTO 34004KT 10SM OVC070 16/11 A2987 RMK AO2 T01560113
KSJX 240955Z AUTO 34003KT 10SM OVC070 16/11 A2987 RMK AO2 T01560112
KSJX 240935Z AUTO 34004KT 10SM OVC070 16/12 A2987 RMK AO2 T01570116
KSJX 240916Z AUTO 01003KT 10SM OVC070 16/13 A2986 RMK AO2 T01550127
KSJX 240915Z AUTO 36003KT 10SM OVC070 16/13 A2986 RMK AO2 T01550127
KSJX 240856Z AUTO 02003KT 10SM OVC070 15/14 A2986 RMK AO2 T01470142
KSJX 240855Z AUTO 03003KT 10SM OVC070 15/14 A2986 RMK AO2 T01470142
KSJX 240835Z AUTO 00000KT 10SM OVC070 15/14 A2985 RMK AO2 T01470140
KSJX 240816Z AUTO 00000KT 10SM SCT070 OVC085 15/14 A2985 RMK AO2 T01490140
KSJX 240815Z AUTO 00000KT 10SM BKN070 OVC085 15/14 A2985 RMK AO2 T01490140
KSJX 240756Z AUTO 00000KT 10SM SCT075 OVC085 15/14 A2984 RMK AO2 T01520141
KSJX 240755Z AUTO 00000KT 10SM SCT075 OVC085 15/14 A2984 RMK AO2 T01520142
KSJX 240735Z AUTO 00000KT 10SM BKN080 15/14 A2984 RMK AO2 T01520135
KSJX 240716Z AUTO 00000KT 10SM SCT080 15/14 A2983 RMK AO2 T01530142
KSJX 240715Z AUTO 00000KT 10SM SCT080 15/14 A2983 RMK AO2 T01530142
KSJX 240655Z AUTO 01003KT 10SM BKN080 16/14 A2983 RMK AO2 T01570142
KSJX 240635Z AUTO 00000KT 10SM SCT080 16/15 A2983 RMK AO2 T01610145
KSJX 240616Z AUTO 01003KT 10SM SCT120 16/15 A2983 RMK AO2 T01630150
KSJX 240615Z AUTO 01003KT 10SM SCT120 16/15 A2983 RMK AO2 T01630150
KSJX 240555Z AUTO 01003KT 10SM CLR 16/16 A2983 RMK AO2 T01620155 10180 20155
KSJX 240535Z AUTO 02003KT 10SM SCT120 16/16 A2983 RMK AO2 T01610155
KSJX 240516Z AUTO 00000KT 10SM SCT095 BKN120 16/15 A2983 RMK AO2 T01580153
KSJX 240515Z AUTO 00000KT 10SM SCT095 BKN120 16/15 A2983 RMK AO2 T01580153
KSJX 240455Z AUTO 00000KT 10SM SCT095 BKN120 16/15 A2983 RMK AO2 T01580154
KSJX 240436Z AUTO 34003KT 10SM BKN120 16/15 A2982 RMK AO2 T01560152
KSJX 240435Z AUTO 34003KT 10SM BKN120 16/15 A2982 RMK AO2 T01560152
KSJX 240416Z AUTO 00000KT 10SM SCT090 BKN120 16/16 A2982 RMK AO2 T01570155
KSJX 240415Z AUTO 00000KT 10SM SCT090 BKN120 16/16 A2982 RMK AO2 T01570155
KSJX 240355Z AUTO 03004KT 10SM SCT090 SCT120 16/15 A2981 RMK AO2 T01560152 402200110
KSJX 240336Z AUTO 00000KT 10SM SCT120 16/16 A2981 RMK AO2 T01580155
KSJX 240335Z AUTO 00000KT 10SM SCT120 16/16 A2981 RMK AO2 T01580155
KSJX 240316Z AUTO 06003KT 10SM BKN120 16/16 A2981 RMK AO2 T01600156
KSJX 240315Z AUTO 06003KT 10SM BKN120 16/16 A2981 RMK AO2 T01600155
KSJX 240255Z AUTO 05003KT 10SM BKN120 16/16 A2981 RMK AO2 T01610156
KSJX 240236Z AUTO 00000KT 10SM BKN110 16/16 A2980 RMK AO2 T01630157
KSJX 240235Z AUTO 00000KT 10SM BKN110 16/16 A2980 RMK AO2 T01630157
KSJX 240216Z AUTO 10003KT 10SM OVC110 16/16 A2981 RMK AO2 T01630156
KSJX 240155Z AUTO 11004KT 10SM SCT026 SCT034 OVC110 16/16 A2980 RMK AO2 T01630155
KSJX 240136Z AUTO 10005KT 10SM -RA SCT022 SCT027 OVC110 17/16 A2980 RMK AO2 T01650156
KSJX 240135Z AUTO 10004KT 10SM -RA SCT022 BKN034 OVC110 17/16 A2980 RMK AO2 T01650156
KSJX 240115Z AUTO 10006KT 10SM DZ OVC110 17/16 A2979 RMK AO2 T01680156
KSJX 240055Z AUTO 10007KT 10SM OVC095 17/16 A2980 RMK AO2 T01720157
KSJX 240036Z AUTO 10008KT 10SM OVC095 17/16 A2979 RMK AO2 T01740155
KSJX 240035Z AUTO 10007KT 10SM OVC095 17/16 A2979 RMK AO2 T01740155
KSJX 240015Z AUTO 10010KT 10SM OVC095 18/16 A2978 RMK AO2 T01770155
KSJX 232355Z AUTO 09008KT 10SM OVC095 18/16 A2978 RMK AO2 T01800159 10220 20180
KSJX 232336Z AUTO 10008KT 10SM SCT044 SCT055 OVC095 18/16 A2978 RMK AO2 T01820160
KSJX 232335Z AUTO 10008KT 10SM SCT044 SCT055 OVC095 18/16 A2978 RMK AO2 T01820160
KSJX 232315Z AUTO 10009KT 10SM SCT044 SCT060 BKN095 19/16 A2978 RMK AO2 T01850162
KSJX 232255Z AUTO 10009KT 10SM SCT042 SCT070 BKN095 19/17 A2977 RMK AO2 T01860165
KSJX 232236Z AUTO 10008KT 10SM -RA SCT070 BKN095 19/17 A2977 RMK AO2 T01850165
KSJX 232235Z AUTO 10009KT 10SM -RA SCT070 BKN095 19/17 A2978 RMK AO2 T01850165
KSJX 232215Z AUTO 10011KT 10SM -RA SCT033 SCT045 OVC070 19/17 A2977 RMK AO2 T01850166
KSJX 232155Z AUTO 11010KT 10SM -RA SCT034 BKN048 OVC060 19/17 A2977 RMK AO2 T01880165
KSJX 232136Z AUTO 10009G14KT 10SM -DZ OVC060 19/17 A2977 RMK AO2 T01900166
KSJX 232135Z AUTO 10010G14KT 10SM -DZ OVC060 19/17 A2977 RMK AO2 T01890166
KSJX 232115Z AUTO 10010KT 10SM SCT047 OVC050 20/16 A2977 RMK AO2 T01980157
KSJX 232056Z AUTO 11010KT 10SM BKN047 OVC050 20/16 A2977 RMK AO2 T01950155
KSJX 232055Z AUTO 10010KT 10SM BKN047 OVC050 20/16 A2978 RMK AO2 T01950155
KSJX 232035Z AUTO 10008KT 10SM OVC045 20/16 A2977 RMK AO2 T01950156
KSJX 232015Z AUTO 10010KT 10SM BKN043 OVC050 21/16 A2977 RMK AO2 T02060155
KSJX 231956Z AUTO 09011KT 10SM BKN050 BKN070 OVC120 21/15 A2976 RMK AO2 T02100154
KSJX 231955Z AUTO 09011KT 10SM BKN050 BKN070 OVC120 21/15 A2976 RMK AO2 T02100154
KSJX 231936Z AUTO 10008KT 10SM BKN050 OVC120 21/15 A2977 RMK AO2 T02110153
KSJX 231915Z AUTO 08010G15KT 10SM OVC120 22/15 A2976 RMK AO2 T02170153
KSJX 231856Z AUTO 08012G19KT 10SM OVC120 22/15 A2976 RMK AO2 T02150152
KSJX 231855Z AUTO 08013G19KT 10SM OVC120 21/15 A2976 RMK AO2 T02140151
KSJX 231835Z AUTO 08015G20KT 10SM OVC120 21/15 A2976 RMK AO2 T02110153
KSJX 231815Z AUTO 09011G16KT 10SM SCT023 BKN110 21/15 A2975 RMK AO2 T02090152
KSJX 231756Z AUTO 09011G18KT 040V110 10SM CLR 22/15 A2976 RMK AO2 T02160150 10216 20152
KSJX 231755Z AUTO 09012G18KT 10SM CLR 22/15 A2976 RMK AO2 T02150149 10215 20152
KSJX 231735Z AUTO 09014KT 10SM CLR 21/14 A2975 RMK AO2 T02090143
KSJX 231715Z AUTO 09012G18KT 10SM CLR 20/14 A2976 RMK AO2 T02020138
KSJX 231656Z AUTO 08012G20KT 10SM CLR 20/14 A2975 RMK AO2 T02020138
KSJX 231655Z AUTO 07015G20KT 10SM CLR 20/14 A2976 RMK AO2 T02030139
KSJX 231635Z AUTO 09011G19KT 10SM SCT080 20/14 A2976 RMK AO2 T01990143
KSJX 231616Z AUTO 08012G17KT 10SM BKN080 19/15 A2976 RMK AO2 T01890146
KSJX 231615Z AUTO 07012G17KT 10SM BKN080 19/15 A2976 RMK AO2 T01890148
KSJX 231556Z AUTO 09012G16KT 10SM OVC080 17/15 A2977 RMK AO2 T01720151
KSJX 231535Z AUTO 07006KT 10SM -RA SCT006 SCT048 OVC080 17/15 A2979 RMK AO2 T01670153
KSJX 231516Z AUTO 08005KT 10SM -RA SCT048 OVC060 16/14 A2979 RMK AO2 T01550143
KSJX 231515Z AUTO 07005KT 10SM -RA BKN048 OVC060 16/14 A2979 RMK AO2 T01550143
KSJX 231455Z AUTO 05005KT 10SM DZ OVC060 15/14 A2980 RMK AO2 T01520140
KSJX 231435Z AUTO 07006KT 7SM OVC060 16/14 A2979 RMK AO2 T01600142
KSJX 231416Z AUTO 06004KT 7SM SCT032 OVC060 17/14 A2979 RMK AO2 T01650141
KSJX 231415Z AUTO 05004KT 7SM SCT032 OVC060 17/14 A2979 RMK AO2 T01650141
KSJX 231355Z AUTO 05005KT 10SM SCT032 SCT060 OVC065 17/13 A2979 RMK AO2 T01670132
KSJX 231335Z AUTO 07006KT 10SM SCT023 BKN060 OVC070 16/13 A2980 RMK AO2 T01630131
KSJX 231316Z AUTO 05005KT 10SM BKN060 OVC070 16/13 A2980 RMK AO2 T01640132
KSJX 231315Z AUTO 06005KT 10SM BKN060 OVC070 16/13 A2980 RMK AO2 T01640132
KSJX 231255Z AUTO 08006KT 7SM BKN060 OVC100 16/13 A2979 RMK AO2 T01590129
KSJX 231235Z AUTO 08006KT 10SM SCT046 OVC060 16/13 A2979 RMK AO2 T01610127
KSJX 231216Z AUTO 06004KT 10SM BKN060 OVC070 16/12 A2979 RMK AO2 T01580122
KSJX 231215Z AUTO 05005KT 10SM BKN060 OVC070 16/12 A2979 RMK AO2 T01590122
KSJX 231155Z AUTO 00000KT 10SM SCT050 OVC080 16/12 A2979 RMK AO2 T01580123 10158 20110
KSJX 231136Z AUTO 00000KT 10SM OVC080 15/12 A2979 RMK AO2 T01530122
KSJX 231135Z AUTO 00000KT 10SM OVC080 15/12 A2979 RMK AO2 T01530122
KSJX 231116Z AUTO 00000KT 10SM SCT080 15/12 A2980 RMK AO2 T01450120
KSJX 231115Z AUTO 00000KT 10SM SCT080 15/12 A2980 RMK AO2 T01450120
KSJX 231055Z AUTO 00000KT 10SM CLR 14/12 A2979 RMK AO2 T01370115
KSJX 231036Z AUTO 00000KT 10SM CLR 13/11 A2979 RMK AO2 T01270106
KSJX 231035Z AUTO 00000KT 10SM CLR 13/11 A2979 RMK AO2 T01260105